createdAt,value
2023-01-13T00:00:00.756Z,42.17
2023-01-13T00:02:27.946Z,36.55
2023-01-13T00:04:58.727Z,36.10
2023-01-13T00:07:48.909Z,37.60
2023-01-13T00:10:49.929Z,39.50
2023-01-13T00:13:33.042Z,40.03
2023-01-13T00:16:07.475Z,39.65
2023-01-13T00:18:37.203Z,43.08
2023-01-13T00:21:12.794Z,40.97
2023-01-13T00:23:45.687Z,38.80
2023-01-13T00:26:28.193Z,40.60
2023-01-13T00:29:00.395Z,38.55
2023-01-13T00:31:58.996Z,46.67
2023-01-13T00:34:42.783Z,39.63
2023-01-13T00:37:17.585Z,40.80
2023-01-13T00:39:45.827Z,39.22
2023-01-13T00:42:31.814Z,38.70
2023-01-13T00:44:59.166Z,36.63
2023-01-13T00:47:26.196Z,36.25
2023-01-13T00:49:53.181Z,37.67
2023-01-13T00:52:20.335Z,37.70
2023-01-13T00:54:47.508Z,39.60
2023-01-13T00:57:15.561Z,38.75
2023-01-13T00:59:42.552Z,43.97
2023-01-13T01:02:10.062Z,43.92
2023-01-13T01:04:37.419Z,38.97
2023-01-13T01:07:25.038Z,38.88
2023-01-13T01:10:26.214Z,36.88
2023-01-13T01:13:20.463Z,38.70
2023-01-13T01:16:03.657Z,38.27
2023-01-13T01:18:30.587Z,38.25
2023-01-13T01:21:00.878Z,37.20
2023-01-13T01:23:48.940Z,36.22
2023-01-13T01:26:50.809Z,38.00
2023-01-13T01:29:31.675Z,37.58
2023-01-13T01:31:59.364Z,36.60
2023-01-13T01:34:26.426Z,37.85
2023-01-13T01:36:53.666Z,37.35
2023-01-13T01:39:21.038Z,42.30
2023-01-13T01:42:07.355Z,38.33
2023-01-13T01:44:43.598Z,38.90
2023-01-13T01:47:13.990Z,39.08
2023-01-13T01:49:42.022Z,40.97
2023-01-13T01:52:17.020Z,40.70
2023-01-13T01:54:52.597Z,36.20
2023-01-13T01:57:29.701Z,40.65
2023-01-13T02:00:01.298Z,39.00
2023-01-13T02:02:30.595Z,43.95
2023-01-13T02:04:58.526Z,43.17
2023-01-13T02:07:47.881Z,40.60
2023-01-13T02:10:49.897Z,44.60
2023-01-13T02:13:31.145Z,41.10
2023-01-13T02:16:11.290Z,40.10
2023-01-13T02:18:53.839Z,41.92
2023-01-13T02:21:39.882Z,41.15
2023-01-13T02:24:54.755Z,39.70
2023-01-13T02:27:55.946Z,38.17
2023-01-13T02:31:23.371Z,33.67
2023-01-13T02:34:17.007Z,37.92
2023-01-13T02:37:04.872Z,34.75
2023-01-13T02:39:45.103Z,38.97
2023-01-13T02:42:37.786Z,34.92
2023-01-13T02:45:08.702Z,37.10
2023-01-13T02:47:39.988Z,36.78
2023-01-13T02:50:19.691Z,33.53
2023-01-13T02:52:52.587Z,37.53
2023-01-13T02:55:27.087Z,38.20
2023-01-13T02:57:56.269Z,34.50
2023-01-13T03:00:26.951Z,38.20
2023-01-13T03:02:54.749Z,36.92
2023-01-13T03:05:21.957Z,40.13
2023-01-13T03:08:50.661Z,41.28
2023-01-13T03:12:05.271Z,40.63
2023-01-13T03:14:51.593Z,40.67
2023-01-13T03:17:41.947Z,42.58
2023-01-13T03:20:16.464Z,41.88
2023-01-13T03:23:19.332Z,42.63
2023-01-13T03:26:15.785Z,39.40
2023-01-13T03:29:12.522Z,40.35
2023-01-13T03:31:55.386Z,39.72
2023-01-13T03:34:30.294Z,37.47
2023-01-13T03:37:03.895Z,39.67
2023-01-13T03:39:36.525Z,43.45
2023-01-13T03:42:21.826Z,41.15
2023-01-13T03:44:56.240Z,39.95
2023-01-13T03:47:42.853Z,42.75
2023-01-13T03:50:32.237Z,40.83
2023-01-13T03:53:07.675Z,44.38
2023-01-13T03:55:38.516Z,43.03
2023-01-13T03:58:23.183Z,42.05
2023-01-13T04:01:19.133Z,40.72
2023-01-13T04:04:27.023Z,43.67
2023-01-13T04:07:51.980Z,41.83
2023-01-13T04:10:57.693Z,42.10
2023-01-13T04:13:29.275Z,43.35
2023-01-13T04:15:56.644Z,44.22
2023-01-13T04:18:26.752Z,42.75
2023-01-13T04:20:57.114Z,41.13
2023-01-13T04:23:25.071Z,40.47
2023-01-13T04:25:52.281Z,40.83
2023-01-13T04:28:20.473Z,37.85
2023-01-13T04:30:48.640Z,39.05
2023-01-13T04:33:18.420Z,38.20
2023-01-13T04:35:47.534Z,40.42
2023-01-13T04:38:18.127Z,40.70
2023-01-13T04:40:45.360Z,38.58
2023-01-13T04:43:12.687Z,39.53
2023-01-13T04:45:39.839Z,37.70
2023-01-13T04:48:07.090Z,40.83
2023-01-13T04:50:54.008Z,41.08
2023-01-13T04:53:35.437Z,41.33
2023-01-13T04:56:02.533Z,41.03
2023-01-13T04:58:50.056Z,38.05
2023-01-13T05:01:49.439Z,37.95
2023-01-13T05:04:21.223Z,38.80
2023-01-13T05:06:48.903Z,37.60
2023-01-13T05:09:37.210Z,43.63
2023-01-13T05:12:39.013Z,41.50
2023-01-13T05:15:26.444Z,41.65
2023-01-13T05:17:54.914Z,41.80
2023-01-13T05:20:25.150Z,43.15
2023-01-13T05:23:10.992Z,39.42
2023-01-13T05:25:43.991Z,37.65
2023-01-13T05:28:11.754Z,39.27
2023-01-13T05:31:01.144Z,40.20
2023-01-13T05:34:02.048Z,41.15
2023-01-13T05:36:42.922Z,37.80
2023-01-13T05:39:09.778Z,40.35
2023-01-13T05:41:55.438Z,42.38
2023-01-13T05:44:22.957Z,42.05
2023-01-13T05:46:50.446Z,41.45
2023-01-13T05:49:17.609Z,43.13
2023-01-13T05:51:44.694Z,42.40
2023-01-13T05:54:11.750Z,42.20
2023-01-13T05:56:38.799Z,43.30
2023-01-13T05:59:05.881Z,42.60
2023-01-13T06:01:32.966Z,41.92
2023-01-13T06:04:20.053Z,39.38
2023-01-13T06:07:00.649Z,34.58
2023-01-13T06:10:03.542Z,38.42
2023-01-13T06:12:43.278Z,39.30
2023-01-13T06:15:13.519Z,38.45
2023-01-13T06:17:40.957Z,41.45
2023-01-13T06:20:09.860Z,41.67
2023-01-13T06:22:44.182Z,43.33
2023-01-13T06:25:36.007Z,42.75
2023-01-13T06:28:04.555Z,39.03
2023-01-13T06:30:46.140Z,42.78
2023-01-13T06:33:25.756Z,40.70
2023-01-13T06:36:03.103Z,41.92
2023-01-13T06:38:58.054Z,43.20
2023-01-13T06:42:23.487Z,42.58
2023-01-13T06:45:04.365Z,41.03
2023-01-13T06:47:33.312Z,39.40
2023-01-13T06:50:22.489Z,36.63
2023-01-13T06:53:29.326Z,37.47
2023-01-13T06:56:11.201Z,36.58
2023-01-13T06:58:39.362Z,34.85
2023-01-13T07:01:06.586Z,41.63
2023-01-13T07:03:34.551Z,39.13
2023-01-13T07:06:02.351Z,38.30
2023-01-13T07:08:50.193Z,37.20
2023-01-13T07:11:31.234Z,37.47
2023-01-13T07:14:17.148Z,38.50
2023-01-13T07:16:44.741Z,38.90
2023-01-13T07:19:12.009Z,37.15
2023-01-13T07:21:38.988Z,37.75
2023-01-13T07:24:26.169Z,41.05
2023-01-13T07:27:28.787Z,36.80
2023-01-13T07:30:10.142Z,39.60
2023-01-13T07:32:37.471Z,39.25
2023-01-13T07:35:05.496Z,43.88
2023-01-13T07:37:37.824Z,42.20
2023-01-13T07:40:06.430Z,42.85
2023-01-13T07:42:52.809Z,46.38
2023-01-13T07:45:21.810Z,46.17
2023-01-13T07:47:51.642Z,47.90
2023-01-13T07:50:19.090Z,48.63
2023-01-13T07:52:47.267Z,43.42
2023-01-13T07:55:34.186Z,43.33
2023-01-13T07:58:35.293Z,45.10
2023-01-13T08:01:33.278Z,43.92
2023-01-13T08:04:00.383Z,40.30
2023-01-13T08:06:27.670Z,38.45
2023-01-13T08:09:15.212Z,43.53
2023-01-13T08:12:14.248Z,40.60
2023-01-13T08:14:41.307Z,40.67
2023-01-13T08:17:28.224Z,43.97
2023-01-13T08:20:09.432Z,42.20
2023-01-13T08:22:37.179Z,42.97
2023-01-13T08:25:04.995Z,42.55
2023-01-13T08:27:33.950Z,47.78
2023-01-13T08:30:22.159Z,47.00
2023-01-13T08:33:16.927Z,42.10
2023-01-13T08:35:44.379Z,52.53
2023-01-13T08:38:11.853Z,47.72
2023-01-13T08:40:40.703Z,45.08
2023-01-13T08:43:07.922Z,42.97
2023-01-13T08:45:36.524Z,48.90
2023-01-13T08:48:04.854Z,47.25
2023-01-13T08:50:52.317Z,45.67
2023-01-13T08:53:45.809Z,43.75
2023-01-13T08:56:37.269Z,45.53
2023-01-13T08:59:04.953Z,41.00
2023-01-13T09:01:32.982Z,48.10
2023-01-13T09:03:59.951Z,47.28
2023-01-13T09:06:27.284Z,47.03
2023-01-13T09:09:15.121Z,49.17
2023-01-13T09:12:34.316Z,45.05
2023-01-13T09:15:18.465Z,45.10
2023-01-13T09:18:06.228Z,46.33
2023-01-13T09:20:47.023Z,46.90
2023-01-13T09:23:14.043Z,46.47
2023-01-13T09:25:41.210Z,44.78
2023-01-13T09:28:08.810Z,47.35
2023-01-13T09:30:37.411Z,49.08
2023-01-13T09:33:23.560Z,48.67
2023-01-13T09:36:13.564Z,43.50
2023-01-13T09:38:54.057Z,43.70
2023-01-13T09:41:46.788Z,45.00
2023-01-13T09:44:27.949Z,43.47
2023-01-13T09:47:02.110Z,46.60
2023-01-13T09:49:39.295Z,43.25
2023-01-13T09:52:19.385Z,42.35
2023-01-13T09:55:06.199Z,45.55
2023-01-13T09:57:42.262Z,47.83
2023-01-13T10:00:16.474Z,47.65
2023-01-13T10:03:11.928Z,46.85
2023-01-13T10:05:45.136Z,47.17
2023-01-13T10:08:41.208Z,50.15
2023-01-13T10:11:42.805Z,47.58
2023-01-13T10:14:33.977Z,51.10
2023-01-13T10:17:30.592Z,49.67
2023-01-13T10:20:34.220Z,49.78
2023-01-13T10:23:56.220Z,51.28
2023-01-13T10:26:45.232Z,46.30
2023-01-13T10:29:28.057Z,48.25
2023-01-13T10:31:57.046Z,49.38
2023-01-13T10:34:25.368Z,52.20
2023-01-13T10:37:06.895Z,50.25
2023-01-13T10:39:45.999Z,47.33
2023-01-13T10:42:23.054Z,49.50
2023-01-13T10:44:51.893Z,47.33
2023-01-13T10:47:28.930Z,49.53
2023-01-13T10:50:11.740Z,47.10
2023-01-13T10:52:56.934Z,50.30
2023-01-13T10:55:51.951Z,54.67
2023-01-13T10:58:34.269Z,50.83
2023-01-13T11:01:04.638Z,50.22
2023-01-13T11:03:58.294Z,48.17
2023-01-13T11:06:46.406Z,47.42
2023-01-13T11:09:35.198Z,48.30
2023-01-13T11:12:47.259Z,48.22
2023-01-13T11:15:55.476Z,47.78
2023-01-13T11:21:27.954Z,42.85
2023-01-13T11:24:06.835Z,51.33
2023-01-13T11:27:11.024Z,47.53
2023-01-13T11:30:21.203Z,49.17
2023-01-13T11:33:28.204Z,53.03
2023-01-13T11:36:38.196Z,46.53
2023-01-13T11:39:26.276Z,52.40
2023-01-13T11:42:22.476Z,50.65
2023-01-13T11:45:17.853Z,46.25
2023-01-13T11:47:48.476Z,46.95
2023-01-13T11:50:29.330Z,46.22
2023-01-13T11:52:59.473Z,48.50
2023-01-13T11:55:40.049Z,45.85
2023-01-13T11:58:51.066Z,43.88
2023-01-13T12:01:44.354Z,44.50
2023-01-13T12:04:23.683Z,38.38
2023-01-13T12:07:22.904Z,41.40
2023-01-13T12:10:18.459Z,39.70
2023-01-13T12:13:07.350Z,39.03
2023-01-13T12:15:50.715Z,40.38
2023-01-13T12:18:46.506Z,40.33
2023-01-13T12:21:36.805Z,42.47
2023-01-13T12:24:56.003Z,40.58
2023-01-13T12:28:20.429Z,39.42
2023-01-13T12:31:02.675Z,41.80
2023-01-13T12:33:38.881Z,42.70
2023-01-13T12:36:11.946Z,42.75
2023-01-13T12:38:59.849Z,44.33
2023-01-13T12:42:05.573Z,44.90
2023-01-13T12:44:32.878Z,42.55
2023-01-13T12:47:00.661Z,45.20
2023-01-13T12:49:32.846Z,44.92
2023-01-13T12:52:20.480Z,39.03
2023-01-13T12:55:26.309Z,38.90
2023-01-13T12:58:07.130Z,42.13
2023-01-13T13:00:40.668Z,40.63
2023-01-13T13:03:27.385Z,41.08
2023-01-13T13:06:19.734Z,40.50
2023-01-13T13:09:18.896Z,38.63
2023-01-13T13:13:04.951Z,38.05
2023-01-13T13:15:51.951Z,39.25
2023-01-13T13:21:23.642Z,36.33
2023-01-13T13:24:18.390Z,43.42
2023-01-13T13:27:53.296Z,41.50
2023-01-13T13:31:03.438Z,38.97
2023-01-13T13:33:59.224Z,37.97
2023-01-13T13:37:22.448Z,43.03
2023-01-13T13:40:42.324Z,38.47
2023-01-13T13:44:09.415Z,38.25
2023-01-13T13:46:50.774Z,37.80
2023-01-13T13:50:00.351Z,35.95
2023-01-13T13:53:18.353Z,37.97
2023-01-13T13:56:02.375Z,39.10
2023-01-13T13:58:49.398Z,36.25
2023-01-13T14:01:53.601Z,39.83
2023-01-13T14:04:37.004Z,40.38
2023-01-13T14:07:35.996Z,38.33
2023-01-13T14:10:22.893Z,35.47
2023-01-13T14:16:17.287Z,37.08
2023-01-13T14:19:18.690Z,34.03
2023-01-13T14:49:05.341Z,35.63
2023-01-13T14:52:07.309Z,33.72
2023-01-13T14:54:53.672Z,40.47
2023-01-13T14:57:35.958Z,39.72
2023-01-13T15:00:15.749Z,38.15
2023-01-13T15:02:57.911Z,39.03
2023-01-13T15:05:25.918Z,43.50
2023-01-13T15:08:30.384Z,43.58
2023-01-13T15:11:36.352Z,43.20
2023-01-13T15:14:44.286Z,38.53
2023-01-13T15:17:45.265Z,40.58
2023-01-13T15:20:46.274Z,42.17
2023-01-13T15:23:47.299Z,39.13
2023-01-13T15:26:38.891Z,43.20
2023-01-13T15:29:13.672Z,40.45
2023-01-13T15:31:40.598Z,40.40
2023-01-13T15:34:07.540Z,40.33
2023-01-13T15:36:36.908Z,40.25
2023-01-13T15:39:04.074Z,40.17
2023-01-13T15:41:49.544Z,40.80
2023-01-13T15:44:35.433Z,41.70
2023-01-13T15:47:05.272Z,38.83
2023-01-13T15:49:42.092Z,37.22
2023-01-13T15:52:21.597Z,39.70
2023-01-13T15:54:49.202Z,38.55
2023-01-13T15:57:45.270Z,46.65
2023-01-13T16:00:39.306Z,39.95
2023-01-13T16:03:40.277Z,40.57
2023-01-13T16:06:27.967Z,40.00
2023-01-13T16:11:55.893Z,38.80
2023-01-13T16:14:22.800Z,40.88
2023-01-13T16:17:10.300Z,42.58
2023-01-13T16:20:11.286Z,43.42
2023-01-13T16:22:52.720Z,44.92
2023-01-13T16:25:23.657Z,45.47
2023-01-13T16:27:51.763Z,45.28
2023-01-13T16:30:30.416Z,46.15
2023-01-13T16:32:58.000Z,47.70
2023-01-13T16:35:25.612Z,46.95
2023-01-13T16:37:54.050Z,42.60
2023-01-13T16:40:35.128Z,42.38
2023-01-13T16:43:03.921Z,48.47
2023-01-13T16:45:31.857Z,45.17
2023-01-13T16:47:59.467Z,46.05
2023-01-13T16:50:32.511Z,48.53
2023-01-13T16:52:59.733Z,46.78
2023-01-13T16:55:27.817Z,43.30
2023-01-13T16:58:08.693Z,44.60
2023-01-13T17:01:02.485Z,41.85
2023-01-13T17:03:44.558Z,40.47
2023-01-13T17:06:11.933Z,43.95
2023-01-13T17:08:59.401Z,46.70
2023-01-13T17:11:40.805Z,41.85
2023-01-13T17:14:29.453Z,44.90
2023-01-13T17:17:36.415Z,49.08
2023-01-13T17:20:37.390Z,47.90
2023-01-13T17:23:18.035Z,45.63
2023-01-13T17:25:44.963Z,45.63
2023-01-13T17:28:12.022Z,42.55
2023-01-13T17:30:39.529Z,45.35
2023-01-13T17:33:07.246Z,50.80
2023-01-13T17:35:34.274Z,55.95
2023-01-13T17:38:02.061Z,59.05
2023-01-13T17:40:28.983Z,57.63
2023-01-13T17:42:57.521Z,61.15
2023-01-13T17:45:24.556Z,61.85
2023-01-13T17:47:51.573Z,65.53
2023-01-13T17:50:18.958Z,60.00
2023-01-13T17:52:46.013Z,59.40
2023-01-13T17:55:12.901Z,49.85
2023-01-13T17:57:39.887Z,57.15
2023-01-13T18:00:07.478Z,52.97
2023-01-13T18:02:59.506Z,58.53
2023-01-13T18:06:09.176Z,62.42
2023-01-13T18:09:24.362Z,55.72
2023-01-13T18:12:10.661Z,59.33
2023-01-13T18:14:37.625Z,56.13
2023-01-13T18:17:24.447Z,54.67
2023-01-13T18:20:49.400Z,51.03
2023-01-13T18:23:48.621Z,51.55
2023-01-13T18:26:38.711Z,47.63
2023-01-13T18:29:05.875Z,52.45
2023-01-13T18:31:32.959Z,51.20
2023-01-13T18:34:00.100Z,58.72
2023-01-13T18:36:27.020Z,62.72
2023-01-13T18:38:54.065Z,56.13
2023-01-13T18:41:39.560Z,55.03
2023-01-13T18:44:06.832Z,52.85
2023-01-13T18:46:33.788Z,49.15
2023-01-13T18:49:00.855Z,49.97
2023-01-13T18:51:27.845Z,53.08
2023-01-13T18:53:54.846Z,50.80
2023-01-13T18:56:22.345Z,48.70
2023-01-13T18:58:53.265Z,51.80
2023-01-13T19:01:25.811Z,55.45
2023-01-13T19:04:21.417Z,51.35
2023-01-13T19:07:09.441Z,49.60
2023-01-13T19:10:10.435Z,48.92
2023-01-13T19:12:40.859Z,60.63
2023-01-13T19:15:08.965Z,61.75
2023-01-13T19:17:56.472Z,66.68
2023-01-13T19:20:57.702Z,66.30
2023-01-13T19:23:39.797Z,99.00
2023-01-13T19:26:09.673Z,77.30
2023-01-13T19:28:40.137Z,64.72
2023-01-13T19:31:10.009Z,61.13
2023-01-13T19:33:39.202Z,68.50
2023-01-13T19:36:07.738Z,71.00
2023-01-13T19:38:36.990Z,60.65
2023-01-13T19:41:11.242Z,61.10
2023-01-13T19:44:16.492Z,59.45
2023-01-13T19:46:57.915Z,55.85
2023-01-13T19:49:25.205Z,56.67
2023-01-13T19:51:52.669Z,59.28
2023-01-13T19:54:20.041Z,54.47
2023-01-13T19:56:47.812Z,56.22
2023-01-13T19:59:39.621Z,54.60
2023-01-13T20:02:32.122Z,57.55
2023-01-13T20:05:24.535Z,57.72
2023-01-13T20:08:25.589Z,57.83
2023-01-13T20:11:34.528Z,56.90
2023-01-13T20:14:29.103Z,55.38
2023-01-13T20:17:16.591Z,56.97
2023-01-13T20:19:58.964Z,57.03
2023-01-13T20:22:39.508Z,59.45
2023-01-13T20:25:41.583Z,57.55
2023-01-13T20:28:22.117Z,55.67
2023-01-13T20:31:09.545Z,57.35
2023-01-13T20:33:50.932Z,56.83
2023-01-13T20:36:28.036Z,55.97
2023-01-13T20:38:59.813Z,53.50
2023-01-13T20:42:05.495Z,54.67
2023-01-13T20:45:06.535Z,56.38
2023-01-13T20:47:47.335Z,52.00
2023-01-13T20:50:15.314Z,59.88
2023-01-13T20:53:02.638Z,58.42
2023-01-13T20:56:03.631Z,61.90
2023-01-13T20:58:46.664Z,57.10
2023-01-13T21:01:13.787Z,60.70
2023-01-13T21:03:41.034Z,61.30
2023-01-13T21:06:08.828Z,58.03
2023-01-13T21:09:00.566Z,52.80
2023-01-13T21:12:19.562Z,55.53
2023-01-13T21:15:29.529Z,56.30
2023-01-13T21:18:48.532Z,52.83
2023-01-13T21:21:49.530Z,57.90
2023-01-13T21:24:30.068Z,56.60
2023-01-13T21:26:59.056Z,63.20
2023-01-13T21:29:26.091Z,63.50
2023-01-13T21:31:54.654Z,65.80
2023-01-13T21:34:41.518Z,84.18
2023-01-13T21:37:42.646Z,63.60
2023-01-13T21:40:43.552Z,63.00
2023-01-13T21:44:02.624Z,56.97
2023-01-13T21:47:15.535Z,56.70
2023-01-13T21:50:20.924Z,52.65
2023-01-13T21:53:01.861Z,57.63
2023-01-13T21:55:29.514Z,61.78
2023-01-13T21:58:15.256Z,66.75
2023-01-13T22:00:49.241Z,72.30
2023-01-13T22:03:18.825Z,71.45
2023-01-13T22:05:46.754Z,66.90
2023-01-13T22:08:33.637Z,69.03
2023-01-13T22:11:34.642Z,68.10
2023-01-13T22:14:36.136Z,66.03
2023-01-13T22:17:38.614Z,66.93
2023-01-13T22:20:39.792Z,69.80
2023-01-13T22:23:31.152Z,68.13
2023-01-13T22:26:06.523Z,62.45
2023-01-13T22:28:40.999Z,55.20
2023-01-13T22:31:12.323Z,57.50
2023-01-13T22:33:40.663Z,50.80
2023-01-13T22:36:10.218Z,54.95
2023-01-13T22:38:38.470Z,58.42
2023-01-13T22:41:10.576Z,59.38
2023-01-13T22:43:38.944Z,55.63
2023-01-13T22:46:11.523Z,53.47
2023-01-13T22:48:40.159Z,50.95
2023-01-13T22:51:12.742Z,49.05
2023-01-13T22:53:59.535Z,49.35
2023-01-13T22:57:03.169Z,46.85
2023-01-13T22:59:45.938Z,49.67
2023-01-13T23:02:17.029Z,45.30
2023-01-13T23:04:47.540Z,48.65
2023-01-13T23:07:35.875Z,51.67
2023-01-13T23:10:36.588Z,48.75
2023-01-13T23:13:37.560Z,51.72
2023-01-13T23:16:44.230Z,48.92
2023-01-13T23:19:44.992Z,46.58
2023-01-13T23:22:25.979Z,43.00
2023-01-13T23:24:53.234Z,47.33
2023-01-13T23:27:20.716Z,49.33
2023-01-13T23:29:47.829Z,50.65
2023-01-13T23:32:34.592Z,52.92
2023-01-13T23:35:15.376Z,50.47
2023-01-13T23:37:42.840Z,53.28
2023-01-13T23:40:29.665Z,50.90
2023-01-13T23:43:30.628Z,54.35
2023-01-13T23:46:14.062Z,54.47
2023-01-13T23:48:41.177Z,58.58
2023-01-13T23:51:12.470Z,62.17
2023-01-13T23:54:01.648Z,59.35
2023-01-13T23:56:42.463Z,57.17
2023-01-13T23:59:29.623Z,56.60
